sensor_id;sensor_type;location;lat;lon;timestamp;temperature;humidity
24176;DHT22;12324;48.146;11.502;2023-07-13T15:02:27;26.90;93.30
24176;DHT22;12324;48.146;11.502;2023-07-13T15:04:55;27.60;95.30
24176;DHT22;12324;48.146;11.502;2023-07-13T15:07:22;26.80;92.50
24176;DHT22;12324;48.146;11.502;2023-07-13T15:09:50;26.10;96.40
24176;DHT22;12324;48.146;11.502;2023-07-13T15:12:18;27.00;94.10
24176;DHT22;12324;48.146;11.502;2023-07-13T15:14:45;27.10;94.70
24176;DHT22;12324;48.146;11.502;2023-07-13T15:17:26;26.60;92.10
24176;DHT22;12324;48.146;11.502;2023-07-13T15:19:54;26.80;93.00
24176;DHT22;12324;48.146;11.502;2023-07-13T15:22:22;27.20;91.70
24176;DHT22;12324;48.146;11.502;2023-07-13T15:24:49;26.70;92.00
24176;DHT22;12324;48.146;11.502;2023-07-13T15:27:16;27.30;91.90
24176;DHT22;12324;48.146;11.502;2023-07-13T15:29:43;26.60;92.40
24176;DHT22;12324;48.146;11.502;2023-07-13T15:32:14;25.90;92.10
24176;DHT22;12324;48.146;11.502;2023-07-13T15:34:41;25.60;93.70
24176;DHT22;12324;48.146;11.502;2023-07-13T15:37:15;25.10;94.70
24176;DHT22;12324;48.146;11.502;2023-07-13T15:39:42;25.50;94.70
24176;DHT22;12324;48.146;11.502;2023-07-13T15:42:15;25.60;94.50
24176;DHT22;12324;48.146;11.502;2023-07-13T15:44:42;26.50;94.60
24176;DHT22;12324;48.146;11.502;2023-07-13T15:49:39;27.50;92.70
24176;DHT22;12324;48.146;11.502;2023-07-13T15:52:24;27.40;93.70
24176;DHT22;12324;48.146;11.502;2023-07-13T15:54:52;26.70;91.70
24176;DHT22;12324;48.146;11.502;2023-07-13T15:57:19;26.00;93.70
24176;DHT22;12324;48.146;11.502;2023-07-13T15:59:46;26.00;94.10
24176;DHT22;12324;48.146;11.502;2023-07-13T16:02:21;26.40;95.80
24176;DHT22;12324;48.146;11.502;2023-07-13T16:04:48;26.80;91.90
24176;DHT22;12324;48.146;11.502;2023-07-13T16:07:16;27.40;92.10
24176;DHT22;12324;48.146;11.502;2023-07-13T16:09:44;27.70;90.50
24176;DHT22;12324;48.146;11.502;2023-07-13T16:12:15;27.70;91.00
24176;DHT22;12324;48.146;11.502;2023-07-13T16:14:43;27.30;90.50
24176;DHT22;12324;48.146;11.502;2023-07-13T16:17:11;26.70;91.50
24176;DHT22;12324;48.146;11.502;2023-07-13T16:19:39;26.50;92.20
24176;DHT22;12324;48.146;11.502;2023-07-13T16:22:17;27.20;92.90
24176;DHT22;12324;48.146;11.502;2023-07-13T16:24:45;27.30;91.00
24176;DHT22;12324;48.146;11.502;2023-07-13T16:27:12;28.50;91.30
24176;DHT22;12324;48.146;11.502;2023-07-13T16:32:11;28.20;90.10
24176;DHT22;12324;48.146;11.502;2023-07-13T16:34:40;27.90;85.40
24176;DHT22;12324;48.146;11.502;2023-07-13T16:37:25;27.20;89.10
24176;DHT22;12324;48.146;11.502;2023-07-13T16:39:56;28.90;86.50
24176;DHT22;12324;48.146;11.502;2023-07-13T16:44:54;28.90;85.40
24176;DHT22;12324;48.146;11.502;2023-07-13T16:47:23;28.60;80.90
24176;DHT22;12324;48.146;11.502;2023-07-13T16:49:50;28.50;83.90
24176;DHT22;12324;48.146;11.502;2023-07-13T17:09:52;28.70;83.30
24176;DHT22;12324;48.146;11.502;2023-07-13T17:12:20;28.00;77.00
24176;DHT22;12324;48.146;11.502;2023-07-13T17:14:46;26.30;80.20
24176;DHT22;12324;48.146;11.502;2023-07-13T17:17:34;26.40;84.10
24176;DHT22;12324;48.146;11.502;2023-07-13T17:20:22;26.00;88.60
24176;DHT22;12324;48.146;11.502;2023-07-13T17:22:50;25.90;90.90
24176;DHT22;12324;48.146;11.502;2023-07-13T17:25:18;27.00;90.40
24176;DHT22;12324;48.146;11.502;2023-07-13T17:27:45;26.50;86.70
24176;DHT22;12324;48.146;11.502;2023-07-13T17:30:19;26.70;86.30
24176;DHT22;12324;48.146;11.502;2023-07-13T17:32:49;27.10;86.40
24176;DHT22;12324;48.146;11.502;2023-07-13T17:35:30;28.50;83.00
24176;DHT22;12324;48.146;11.502;2023-07-13T17:50:39;26.60;84.80
24176;DHT22;12324;48.146;11.502;2023-07-13T17:58:09;26.20;89.00
24176;DHT22;12324;48.146;11.502;2023-07-13T18:00:39;26.30;84.20
24176;DHT22;12324;48.146;11.502;2023-07-13T18:03:13;25.90;89.50
24176;DHT22;12324;48.146;11.502;2023-07-13T18:05:42;25.50;90.50
24176;DHT22;12324;48.146;11.502;2023-07-13T18:08:25;24.80;92.40
24176;DHT22;12324;48.146;11.502;2023-07-13T18:10:54;24.70;94.70
24176;DHT22;12324;48.146;11.502;2023-07-13T18:13:21;24.50;95.60
24176;DHT22;12324;48.146;11.502;2023-07-13T18:15:48;24.20;96.60
24176;DHT22;12324;48.146;11.502;2023-07-13T18:18:17;24.00;98.20
24176;DHT22;12324;48.146;11.502;2023-07-13T18:20:45;23.90;99.90
24176;DHT22;12324;48.146;11.502;2023-07-13T18:23:18;23.60;99.90
24176;DHT22;12324;48.146;11.502;2023-07-13T18:25:46;23.30;99.90
24176;DHT22;12324;48.146;11.502;2023-07-13T18:28:15;23.00;99.90
24176;DHT22;12324;48.146;11.502;2023-07-13T18:30:45;23.00;99.90
24176;DHT22;12324;48.146;11.502;2023-07-13T18:33:23;23.00;99.90
24176;DHT22;12324;48.146;11.502;2023-07-13T18:35:51;22.70;99.90
24176;DHT22;12324;48.146;11.502;2023-07-13T18:38:21;22.40;99.90
24176;DHT22;12324;48.146;11.502;2023-07-13T18:40:48;22.40;99.90
24176;DHT22;12324;48.146;11.502;2023-07-13T18:43:15;22.30;99.90
24176;DHT22;12324;48.146;11.502;2023-07-13T18:45:42;22.20;99.90
24176;DHT22;12324;48.146;11.502;2023-07-13T18:48:13;22.30;99.90
24176;DHT22;12324;48.146;11.502;2023-07-13T18:50:43;22.30;99.90
24176;DHT22;12324;48.146;11.502;2023-07-13T18:53:14;22.20;99.90
24176;DHT22;12324;48.146;11.502;2023-07-13T18:55:42;22.10;99.90
24176;DHT22;12324;48.146;11.502;2023-07-13T18:58:11;22.10;99.90
24176;DHT22;12324;48.146;11.502;2023-07-13T19:00:42;22.00;99.90
24176;DHT22;12324;48.146;11.502;2023-07-13T19:03:17;22.00;99.90
24176;DHT22;12324;48.146;11.502;2023-07-13T19:05:45;21.90;99.90
24176;DHT22;12324;48.146;11.502;2023-07-13T19:08:26;21.70;99.90
24176;DHT22;12324;48.146;11.502;2023-07-13T19:10:54;21.70;99.90
24176;DHT22;12324;48.146;11.502;2023-07-13T19:13:23;21.60;99.90
24176;DHT22;12324;48.146;11.502;2023-07-13T19:15:51;21.60;99.90
24176;DHT22;12324;48.146;11.502;2023-07-13T19:18:20;21.60;99.90
24176;DHT22;12324;48.146;11.502;2023-07-13T19:20:50;21.50;99.90
24176;DHT22;12324;48.146;11.502;2023-07-13T19:23:26;21.40;99.90
24176;DHT22;12324;48.146;11.502;2023-07-13T19:25:54;21.30;99.90
24176;DHT22;12324;48.146;11.502;2023-07-13T19:28:30;21.10;99.90
24176;DHT22;12324;48.146;11.502;2023-07-13T19:30:57;21.10;99.90
24176;DHT22;12324;48.146;11.502;2023-07-13T19:33:24;21.00;99.90
24176;DHT22;12324;48.146;11.502;2023-07-13T19:35:51;20.90;99.90
24176;DHT22;12324;48.146;11.502;2023-07-13T19:38:21;20.80;99.90
24176;DHT22;12324;48.146;11.502;2023-07-13T19:40:49;20.70;99.90
24176;DHT22;12324;48.146;11.502;2023-07-13T19:43:16;20.80;99.90
24176;DHT22;12324;48.146;11.502;2023-07-13T19:45:43;20.80;99.90
24176;DHT22;12324;48.146;11.502;2023-07-13T19:48:09;20.70;99.90
24176;DHT22;12324;48.146;11.502;2023-07-13T19:50:38;20.70;99.90
24176;DHT22;12324;48.146;11.502;2023-07-13T19:53:05;20.70;99.90
24176;DHT22;12324;48.146;11.502;2023-07-13T19:55:32;20.60;99.90
24176;DHT22;12324;48.146;11.502;2023-07-13T19:57:58;20.60;99.90
24176;DHT22;12324;48.146;11.502;2023-07-13T20:00:27;20.50;99.90
24176;DHT22;12324;48.146;11.502;2023-07-13T20:02:54;20.40;99.90
24176;DHT22;12324;48.146;11.502;2023-07-13T20:05:22;20.40;99.90
24176;DHT22;12324;48.146;11.502;2023-07-13T20:07:54;20.40;99.90
24176;DHT22;12324;48.146;11.502;2023-07-13T20:10:26;20.40;99.90
24176;DHT22;12324;48.146;11.502;2023-07-13T20:12:57;20.30;99.90
24176;DHT22;12324;48.146;11.502;2023-07-13T20:15:30;20.30;99.90
24176;DHT22;12324;48.146;11.502;2023-07-13T20:18:00;20.30;99.90
24176;DHT22;12324;48.146;11.502;2023-07-13T20:20:36;20.20;99.90
24176;DHT22;12324;48.146;11.502;2023-07-13T20:23:19;20.10;99.90
24176;DHT22;12324;48.146;11.502;2023-07-13T20:25:47;20.00;99.90
24176;DHT22;12324;48.146;11.502;2023-07-13T20:28:15;19.90;99.90
24176;DHT22;12324;48.146;11.502;2023-07-13T20:30:45;19.80;99.90
24176;DHT22;12324;48.146;11.502;2023-07-13T20:33:23;19.70;99.90
24176;DHT22;12324;48.146;11.502;2023-07-13T20:35:53;19.70;99.90
24176;DHT22;12324;48.146;11.502;2023-07-13T20:38:20;19.60;99.90
24176;DHT22;12324;48.146;11.502;2023-07-13T20:40:48;19.60;99.90
24176;DHT22;12324;48.146;11.502;2023-07-13T20:43:19;19.50;99.90
24176;DHT22;12324;48.146;11.502;2023-07-13T20:45:47;19.40;99.90
24176;DHT22;12324;48.146;11.502;2023-07-13T20:48:27;19.40;99.90
24176;DHT22;12324;48.146;11.502;2023-07-13T20:50:57;19.40;99.90
24176;DHT22;12324;48.146;11.502;2023-07-13T20:53:26;19.30;99.90
24176;DHT22;12324;48.146;11.502;2023-07-13T20:55:53;19.30;99.90
24176;DHT22;12324;48.146;11.502;2023-07-13T20:58:20;19.30;99.90
24176;DHT22;12324;48.146;11.502;2023-07-13T21:00:47;19.20;99.90
24176;DHT22;12324;48.146;11.502;2023-07-13T21:03:21;19.20;99.90
24176;DHT22;12324;48.146;11.502;2023-07-13T21:05:48;19.20;99.90
24176;DHT22;12324;48.146;11.502;2023-07-13T21:08:20;19.10;99.90
24176;DHT22;12324;48.146;11.502;2023-07-13T21:10:47;19.10;99.90
24176;DHT22;12324;48.146;11.502;2023-07-13T21:13:16;19.10;99.90
24176;DHT22;12324;48.146;11.502;2023-07-13T21:15:44;19.10;99.90
24176;DHT22;12324;48.146;11.502;2023-07-13T21:18:16;19.10;99.90
24176;DHT22;12324;48.146;11.502;2023-07-13T21:20:50;19.00;99.90
24176;DHT22;12324;48.146;11.502;2023-07-13T21:23:33;19.00;99.90
24176;DHT22;12324;48.146;11.502;2023-07-13T21:26:01;18.90;99.90
24176;DHT22;12324;48.146;11.502;2023-07-13T21:28:33;19.00;99.90
24176;DHT22;12324;48.146;11.502;2023-07-13T21:31:02;19.00;99.90
24176;DHT22;12324;48.146;11.502;2023-07-13T21:33:30;18.80;99.90
24176;DHT22;12324;48.146;11.502;2023-07-13T21:35:58;18.80;99.90
24176;DHT22;12324;48.146;11.502;2023-07-13T21:38:28;18.80;99.90
24176;DHT22;12324;48.146;11.502;2023-07-13T21:41:01;18.80;99.90
24176;DHT22;12324;48.146;11.502;2023-07-13T21:43:29;18.70;99.90
24176;DHT22;12324;48.146;11.502;2023-07-13T21:45:56;18.70;99.90
24176;DHT22;12324;48.146;11.502;2023-07-13T21:48:23;18.70;99.90
24176;DHT22;12324;48.146;11.502;2023-07-13T21:50:53;18.70;99.90
24176;DHT22;12324;48.146;11.502;2023-07-13T21:53:24;18.60;99.90
24176;DHT22;12324;48.146;11.502;2023-07-13T21:55:53;18.70;99.90
24176;DHT22;12324;48.146;11.502;2023-07-13T21:58:32;18.70;99.90
24176;DHT22;12324;48.146;11.502;2023-07-13T22:01:00;18.70;99.90
24176;DHT22;12324;48.146;11.502;2023-07-13T22:03:34;18.60;99.90
24176;DHT22;12324;48.146;11.502;2023-07-13T22:06:02;18.60;99.90
24176;DHT22;12324;48.146;11.502;2023-07-13T22:08:35;18.60;99.90
24176;DHT22;12324;48.146;11.502;2023-07-13T22:11:18;18.50;99.90
24176;DHT22;12324;48.146;11.502;2023-07-13T22:13:45;18.60;99.90
24176;DHT22;12324;48.146;11.502;2023-07-13T22:16:31;18.50;99.90
24176;DHT22;12324;48.146;11.502;2023-07-13T22:19:00;18.50;99.90
24176;DHT22;12324;48.146;11.502;2023-07-13T22:21:30;18.50;99.90
24176;DHT22;12324;48.146;11.502;2023-07-13T22:23:58;18.50;99.90
24176;DHT22;12324;48.146;11.502;2023-07-13T22:26:34;18.40;99.90
24176;DHT22;12324;48.146;11.502;2023-07-13T22:31:38;18.30;99.90
24176;DHT22;12324;48.146;11.502;2023-07-13T22:34:08;18.20;99.90
24176;DHT22;12324;48.146;11.502;2023-07-13T22:36:35;18.20;99.90
24176;DHT22;12324;48.146;11.502;2023-07-13T22:39:03;18.20;99.90
24176;DHT22;12324;48.146;11.502;2023-07-13T22:43:58;18.20;99.90
24176;DHT22;12324;48.146;11.502;2023-07-13T22:46:27;18.20;99.90
24176;DHT22;12324;48.146;11.502;2023-07-13T22:49:02;18.10;99.90
24176;DHT22;12324;48.146;11.502;2023-07-13T22:51:38;18.20;99.90
24176;DHT22;12324;48.146;11.502;2023-07-13T22:54:12;18.10;99.90
24176;DHT22;12324;48.146;11.502;2023-07-13T22:56:39;18.00;99.90
24176;DHT22;12324;48.146;11.502;2023-07-13T22:59:06;17.90;99.90
24176;DHT22;12324;48.146;11.502;2023-07-13T23:01:37;17.90;99.90
24176;DHT22;12324;48.146;11.502;2023-07-13T23:06:43;17.80;99.90
24176;DHT22;12324;48.146;11.502;2023-07-13T23:09:14;17.70;99.90
24176;DHT22;12324;48.146;11.502;2023-07-13T23:11:41;17.60;99.90
24176;DHT22;12324;48.146;11.502;2023-07-13T23:14:08;17.60;99.90
24176;DHT22;12324;48.146;11.502;2023-07-13T23:16:35;17.60;99.90
24176;DHT22;12324;48.146;11.502;2023-07-13T23:19:02;17.40;99.90
24176;DHT22;12324;48.146;11.502;2023-07-13T23:21:29;17.40;99.90
24176;DHT22;12324;48.146;11.502;2023-07-13T23:23:56;17.20;99.90
24176;DHT22;12324;48.146;11.502;2023-07-13T23:26:25;17.00;99.90
24176;DHT22;12324;48.146;11.502;2023-07-13T23:28:52;17.10;99.90
24176;DHT22;12324;48.146;11.502;2023-07-13T23:31:28;17.10;99.90
24176;DHT22;12324;48.146;11.502;2023-07-13T23:33:58;17.00;99.90
24176;DHT22;12324;48.146;11.502;2023-07-13T23:36:25;16.90;99.90
24176;DHT22;12324;48.146;11.502;2023-07-13T23:38:52;17.00;99.90
24176;DHT22;12324;48.146;11.502;2023-07-13T23:41:21;17.10;99.90
24176;DHT22;12324;48.146;11.502;2023-07-13T23:43:48;17.00;99.90
24176;DHT22;12324;48.146;11.502;2023-07-13T23:46:38;17.20;99.90
24176;DHT22;12324;48.146;11.502;2023-07-13T23:49:29;17.30;99.90
24176;DHT22;12324;48.146;11.502;2023-07-13T23:51:59;17.20;99.90
24176;DHT22;12324;48.146;11.502;2023-07-13T23:54:27;17.30;99.90
24176;DHT22;12324;48.146;11.502;2023-07-13T23:56:58;17.10;99.90
24176;DHT22;12324;48.146;11.502;2023-07-13T23:59:25;17.10;99.90
